Time;durP1;ratioP1;P1;durP2;ratioP2;P2;SDS_P1;SDS_P2;PMS_P1;PMS_P2;Temp;Humidity;BMP_temperature;BMP_pressure;BME280_temperature;BME280_humidity;BME280_pressure;Samples;Min_cycle;Max_cycle;Signal;HPM_P1;HPM_P2
2023/09/05 00:02:13;;;;;;;2.60;2.40;;;;;;;;;;4992245;28;20235;-80
2023/09/05 00:04:44;;;;;;;2.63;2.30;;;;;;;;;;4988342;28;20295;-80
2023/09/05 00:07:13;;;;;;;2.60;2.40;;;;;;;;;;4989596;28;20295;-80
2023/09/05 00:09:40;;;;;;;3.80;2.30;;;;;;;;;;4987161;28;20215;-80
2023/09/05 00:12:08;;;;;;;2.70;2.50;;;;;;;;;;4991726;28;20228;-80
2023/09/05 00:14:36;;;;;;;2.87;2.60;;;;;;;;;;4987226;28;20288;-80
2023/09/05 00:17:04;;;;;;;3.63;2.33;;;;;;;;;;4988963;28;20239;-80
2023/09/05 00:19:31;;;;;;;3.17;2.50;;;;;;;;;;4992022;28;20689;-80
2023/09/05 00:21:58;;;;;;;3.43;2.80;;;;;;;;;;4991507;28;20671;-80
2023/09/05 00:24:31;;;;;;;2.73;2.43;;;;;;;;;;4992336;28;20215;-80
2023/09/05 00:26:58;;;;;;;4.83;2.60;;;;;;;;;;4983328;28;20231;-80
2023/09/05 00:29:27;;;;;;;2.83;2.30;;;;;;;;;;4991830;28;20238;-80
2023/09/05 00:31:54;;;;;;;2.80;2.30;;;;;;;;;;4991670;28;20234;-80
2023/09/05 00:34:21;;;;;;;2.50;2.30;;;;;;;;;;4991993;28;20212;-80
2023/09/05 00:36:48;;;;;;;4.00;2.67;;;;;;;;;;4991197;28;20227;-80
2023/09/05 00:39:17;;;;;;;3.33;3.03;;;;;;;;;;4991774;28;20204;-80
2023/09/05 00:41:45;;;;;;;3.13;2.83;;;;;;;;;;4991430;28;20656;-80
2023/09/05 00:44:13;;;;;;;3.00;2.50;;;;;;;;;;4991991;28;20208;-80
2023/09/05 00:46:41;;;;;;;3.07;2.70;;;;;;;;;;4983287;28;20780;-80
2023/09/05 00:49:10;;;;;;;6.70;2.57;;;;;;;;;;4991923;28;20215;-80
2023/09/05 00:51:38;;;;;;;3.70;2.40;;;;;;;;;;4991628;28;20239;-80
2023/09/05 00:54:06;;;;;;;3.57;2.80;;;;;;;;;;4992123;28;20266;-80
2023/09/05 00:56:35;;;;;;;3.63;2.40;;;;;;;;;;4991024;28;20239;-80
2023/09/05 00:59:03;;;;;;;4.17;2.77;;;;;;;;;;4991497;28;20250;-80
2023/09/05 01:01:30;;;;;;;4.03;2.47;;;;;;;;;;4984368;28;20231;-80
2023/09/05 01:03:58;;;;;;;3.43;2.60;;;;;;;;;;4991893;28;20204;-80
2023/09/05 01:06:31;;;;;;;7.13;2.67;;;;;;;;;;4982529;28;20232;-79
2023/09/05 01:09:03;;;;;;;3.50;2.50;;;;;;;;;;4992347;28;20204;-79
2023/09/05 01:11:31;;;;;;;2.70;2.50;;;;;;;;;;4991056;28;20591;-80
2023/09/05 01:13:58;;;;;;;4.47;2.70;;;;;;;;;;4991479;28;20258;-80
2023/09/05 01:16:30;;;;;;;3.13;2.87;;;;;;;;;;4986470;28;20228;-80
2023/09/05 01:18:57;;;;;;;3.00;2.73;;;;;;;;;;4992149;28;20212;-80
2023/09/05 01:21:27;;;;;;;2.93;2.63;;;;;;;;;;4995175;28;20231;-80
2023/09/05 01:23:58;;;;;;;3.37;2.53;;;;;;;;;;4995772;28;20204;-80
2023/09/05 01:26:26;;;;;;;5.23;2.60;;;;;;;;;;4994658;28;20307;-80
2023/09/05 01:28:54;;;;;;;3.13;2.50;;;;;;;;;;4995387;28;20555;-80
2023/09/05 01:31:22;;;;;;;6.30;2.70;;;;;;;;;;4994921;28;20726;-80
2023/09/05 01:33:49;;;;;;;3.97;2.73;;;;;;;;;;4995418;28;20219;-80
2023/09/05 01:36:16;;;;;;;5.13;2.73;;;;;;;;;;4994481;28;20231;-80
2023/09/05 01:38:43;;;;;;;2.70;2.50;;;;;;;;;;4995495;28;20231;-80
2023/09/05 01:41:10;;;;;;;4.70;2.90;;;;;;;;;;4994660;28;20228;-80
2023/09/05 01:49:18;;;;;;;3.43;2.60;;;;;;;;;;5031038;28;20303;-84
2023/09/05 01:51:45;;;;;;;6.37;4.20;;;;;;;;;;5031003;28;20724;-84
2023/09/05 01:54:12;;;;;;;4.17;2.77;;;;;;;;;;5037366;28;20218;-84
2023/09/05 01:56:39;;;;;;;4.00;2.70;;;;;;;;;;5034616;28;20606;-84
2023/09/05 01:59:06;;;;;;;4.73;2.90;;;;;;;;;;5029895;28;20211;-84
2023/09/05 02:01:33;;;;;;;3.30;2.90;;;;;;;;;;5036511;28;20234;-83
2023/09/05 02:04:00;;;;;;;3.13;2.83;;;;;;;;;;5027153;28;20273;-82
2023/09/05 02:06:29;;;;;;;3.70;3.40;;;;;;;;;;5011959;28;20586;-83
2023/09/05 02:08:56;;;;;;;4.37;3.17;;;;;;;;;;5036003;28;20214;-83
2023/09/05 02:11:23;;;;;;;3.40;3.10;;;;;;;;;;5033221;28;20253;-83
2023/09/05 02:13:50;;;;;;;3.57;2.80;;;;;;;;;;5027717;28;20210;-83
2023/09/05 02:16:19;;;;;;;3.37;2.83;;;;;;;;;;5026599;28;20599;-83
2023/09/05 02:18:47;;;;;;;3.20;2.80;;;;;;;;;;5012592;28;20212;-83
2023/09/05 02:21:14;;;;;;;3.50;3.20;;;;;;;;;;5018758;28;20234;-83
2023/09/05 02:23:42;;;;;;;2.80;2.60;;;;;;;;;;5031164;28;20242;-82
2023/09/05 02:26:09;;;;;;;4.47;2.87;;;;;;;;;;5023160;28;20700;-83
2023/09/05 02:28:37;;;;;;;3.60;2.70;;;;;;;;;;5035407;28;20213;-82
2023/09/05 02:31:06;;;;;;;2.97;2.77;;;;;;;;;;5026498;28;20253;-83
2023/09/05 02:33:33;;;;;;;3.27;2.97;;;;;;;;;;5015744;28;20617;-82
2023/09/05 02:36:07;;;;;;;3.13;2.93;;;;;;;;;;5022978;28;20240;-82
2023/09/05 02:38:34;;;;;;;3.10;2.77;;;;;;;;;;5035419;28;20211;-82
2023/09/05 02:41:02;;;;;;;3.23;2.93;;;;;;;;;;5019625;28;20242;-82
2023/09/05 02:43:29;;;;;;;9.90;3.13;;;;;;;;;;5027935;28;20223;-83
2023/09/05 02:45:56;;;;;;;4.80;2.90;;;;;;;;;;5012137;28;20649;-82
2023/09/05 02:48:23;;;;;;;3.93;2.83;;;;;;;;;;5021987;28;20215;-82
2023/09/05 02:51:00;;;;;;;4.23;2.97;;;;;;;;;;5030330;28;20230;-82
2023/09/05 02:53:27;;;;;;;3.63;3.07;;;;;;;;;;5013698;28;20309;-82
2023/09/05 02:55:54;;;;;;;3.43;3.00;;;;;;;;;;5030542;28;20708;-83
2023/09/05 02:58:26;;;;;;;3.60;3.30;;;;;;;;;;5029811;28;20211;-83
2023/09/05 03:00:53;;;;;;;3.57;3.13;;;;;;;;;;5025615;28;20231;-82
2023/09/05 03:03:20;;;;;;;4.00;3.00;;;;;;;;;;5035034;28;20719;-83
2023/09/05 03:05:47;;;;;;;6.23;3.20;;;;;;;;;;5034240;28;20234;-83
2023/09/05 03:08:14;;;;;;;4.50;2.80;;;;;;;;;;5035184;28;20207;-83
2023/09/05 03:10:41;;;;;;;4.33;3.00;;;;;;;;;;5021087;28;20609;-83
2023/09/05 03:13:09;;;;;;;3.13;2.93;;;;;;;;;;5020728;28;20672;-83
2023/09/05 03:15:37;;;;;;;3.77;3.10;;;;;;;;;;5017667;28;20235;-83
2023/09/05 03:18:04;;;;;;;3.43;3.07;;;;;;;;;;5018969;28;20677;-83
2023/09/05 03:20:31;;;;;;;2.80;2.60;;;;;;;;;;5026438;28;20602;-83
2023/09/05 03:22:58;;;;;;;4.80;3.07;;;;;;;;;;5033355;28;20234;-83
2023/09/05 03:25:25;;;;;;;3.40;3.10;;;;;;;;;;5027502;28;20243;-83
2023/09/05 03:27:52;;;;;;;3.40;3.10;;;;;;;;;;5033498;28;20246;-82
2023/09/05 03:30:27;;;;;;;3.27;3.03;;;;;;;;;;5025143;28;20233;-85
2023/09/05 03:33:14;;;;;;;3.57;3.27;;;;;;;;;;5022723;28;20264;-85
2023/09/05 03:36:05;;;;;;;4.07;3.03;;;;;;;;;;5020356;28;20230;-85
2023/09/05 03:41:47;;;;;;;5.50;3.90;;;;;;;;;;5007710;28;20301;-85
2023/09/05 03:44:19;;;;;;;3.57;2.97;;;;;;;;;;5015030;28;20689;-83
2023/09/05 03:46:46;;;;;;;5.87;3.83;;;;;;;;;;5032123;28;20288;-82
2023/09/05 03:49:14;;;;;;;5.70;3.70;;;;;;;;;;5014949;28;20218;-82
2023/09/05 03:51:41;;;;;;;3.67;3.27;;;;;;;;;;5029811;28;20234;-82
2023/09/05 03:54:09;;;;;;;4.97;3.53;;;;;;;;;;5032990;28;20214;-81
2023/09/05 03:56:36;;;;;;;5.40;3.13;;;;;;;;;;5024651;28;20589;-83
2023/09/05 03:59:03;;;;;;;4.83;3.47;;;;;;;;;;5025531;28;20213;-84
2023/09/05 04:01:30;;;;;;;3.50;3.20;;;;;;;;;;5033287;28;20230;-82
2023/09/05 04:03:57;;;;;;;5.67;3.20;;;;;;;;;;5022456;28;20237;-82
2023/09/05 04:06:26;;;;;;;4.30;3.57;;;;;;;;;;5021578;28;20273;-82
2023/09/05 04:08:53;;;;;;;3.47;3.17;;;;;;;;;;5031756;28;20211;-82
2023/09/05 04:11:20;;;;;;;3.20;3.00;;;;;;;;;;5030300;28;20631;-82
2023/09/05 04:13:47;;;;;;;6.17;3.40;;;;;;;;;;5032491;28;20222;-82
2023/09/05 04:16:14;;;;;;;3.97;3.57;;;;;;;;;;5024520;28;20230;-83
2023/09/05 04:18:41;;;;;;;5.07;3.50;;;;;;;;;;5020206;28;20210;-82
2023/09/05 04:21:08;;;;;;;4.87;3.57;;;;;;;;;;5024020;28;20230;-82
2023/09/05 04:23:36;;;;;;;3.83;3.43;;;;;;;;;;5032161;28;20227;-82
2023/09/05 04:26:04;;;;;;;4.33;3.63;;;;;;;;;;5031227;28;20242;-82
2023/09/05 04:28:33;;;;;;;4.27;3.67;;;;;;;;;;5024931;28;20819;-82
2023/09/05 04:31:02;;;;;;;4.10;3.60;;;;;;;;;;5030745;28;20235;-82
2023/09/05 04:33:31;;;;;;;4.00;3.07;;;;;;;;;;5023737;28;20222;-82
2023/09/05 04:35:59;;;;;;;3.40;3.10;;;;;;;;;;5028080;28;20308;-82
2023/09/05 04:38:26;;;;;;;3.87;3.53;;;;;;;;;;5026341;28;20206;-82
2023/09/05 04:40:54;;;;;;;3.97;3.50;;;;;;;;;;5021381;28;20612;-82
2023/09/05 04:43:21;;;;;;;4.53;3.50;;;;;;;;;;5020099;28;20281;-82
2023/09/05 04:45:54;;;;;;;4.97;3.37;;;;;;;;;;5021160;28;20235;-82
2023/09/05 04:48:21;;;;;;;4.03;3.60;;;;;;;;;;5024672;28;20210;-82
2023/09/05 04:50:48;;;;;;;4.93;3.50;;;;;;;;;;5032528;28;20262;-82
2023/09/05 04:53:15;;;;;;;3.53;3.23;;;;;;;;;;5032803;28;20202;-83
2023/09/05 04:55:43;;;;;;;4.00;3.30;;;;;;;;;;5026498;28;20235;-84
2023/09/05 04:58:12;;;;;;;4.23;3.17;;;;;;;;;;5030594;28;20207;-84
2023/09/05 05:00:39;;;;;;;5.17;3.07;;;;;;;;;;5021076;28;20230;-85
2023/09/05 05:03:06;;;;;;;5.40;3.63;;;;;;;;;;5033444;28;20233;-84
2023/09/05 05:05:33;;;;;;;4.53;3.67;;;;;;;;;;5025872;28;20227;-84
2023/09/05 05:08:00;;;;;;;5.10;3.57;;;;;;;;;;5032466;28;20716;-84
2023/09/05 05:10:27;;;;;;;4.43;4.03;;;;;;;;;;5032990;28;20222;-84
2023/09/05 05:12:54;;;;;;;3.80;3.50;;;;;;;;;;5017107;28;20218;-85
2023/09/05 05:15:23;;;;;;;4.67;3.40;;;;;;;;;;5032458;28;20233;-85
2023/09/05 05:17:50;;;;;;;3.87;3.43;;;;;;;;;;5033208;28;20857;-84
2023/09/05 05:20:18;;;;;;;4.70;3.60;;;;;;;;;;5031902;28;20222;-82
2023/09/05 05:22:45;;;;;;;5.47;3.50;;;;;;;;;;5031697;28;20668;-82
2023/09/05 05:25:12;;;;;;;5.03;3.30;;;;;;;;;;5031974;28;20715;-82
2023/09/05 05:27:39;;;;;;;4.20;3.73;;;;;;;;;;5031759;28;20256;-83
2023/09/05 05:30:06;;;;;;;4.67;3.53;;;;;;;;;;5031270;28;20223;-82
2023/09/05 05:32:35;;;;;;;17.57;5.80;;;;;;;;;;5031760;28;20215;-82
2023/09/05 05:35:02;;;;;;;7.17;4.20;;;;;;;;;;5023328;28;20235;-82
2023/09/05 05:37:29;;;;;;;14.47;4.10;;;;;;;;;;5031687;28;20227;-82
2023/09/05 05:39:56;;;;;;;8.40;4.00;;;;;;;;;;5030865;28;20211;-81
2023/09/05 05:42:23;;;;;;;5.47;3.77;;;;;;;;;;5031367;28;20209;-83
2023/09/05 05:44:50;;;;;;;7.90;4.73;;;;;;;;;;5031663;28;20226;-83
2023/09/05 05:47:17;;;;;;;7.20;4.10;;;;;;;;;;5032194;28;20227;-82
2023/09/05 05:49:46;;;;;;;6.77;5.07;;;;;;;;;;5021743;28;20227;-82
2023/09/05 05:52:13;;;;;;;5.10;4.53;;;;;;;;;;5021314;28;20206;-82
2023/09/05 05:54:41;;;;;;;6.23;4.33;;;;;;;;;;5031403;28;20203;-82
2023/09/05 05:57:08;;;;;;;5.17;4.37;;;;;;;;;;5023379;28;20238;-82
2023/09/05 05:59:35;;;;;;;4.80;4.07;;;;;;;;;;5023362;28;20210;-82
2023/09/05 06:02:03;;;;;;;6.67;4.77;;;;;;;;;;5032103;28;20712;-82
2023/09/05 06:04:30;;;;;;;5.50;3.73;;;;;;;;;;5021216;28;20597;-84
2023/09/05 06:06:59;;;;;;;6.30;3.83;;;;;;;;;;5017110;28;20234;-83
2023/09/05 06:09:26;;;;;;;4.63;3.60;;;;;;;;;;5036129;28;20202;-83
2023/09/05 06:11:53;;;;;;;4.50;4.07;;;;;;;;;;5011073;28;20231;-83
2023/09/05 06:14:20;;;;;;;5.27;3.60;;;;;;;;;;5035938;28;20199;-83
2023/09/05 06:16:47;;;;;;;5.63;3.60;;;;;;;;;;5026894;28;20714;-83
2023/09/05 06:19:14;;;;;;;5.03;3.40;;;;;;;;;;5027723;28;20661;-83
2023/09/05 06:21:46;;;;;;;5.83;3.77;;;;;;;;;;5035677;28;20226;-83
2023/09/05 06:24:14;;;;;;;3.53;3.23;;;;;;;;;;5020449;28;20222;-83
2023/09/05 06:26:44;;;;;;;3.17;2.90;;;;;;;;;;5023251;28;20239;-83
2023/09/05 06:29:12;;;;;;;4.23;3.80;;;;;;;;;;5010676;28;20543;-84
2023/09/05 06:31:39;;;;;;;3.10;2.90;;;;;;;;;;5022317;28;20258;-83
2023/09/05 06:34:06;;;;;;;6.43;3.33;;;;;;;;;;5018650;28;20222;-83
2023/09/05 06:36:33;;;;;;;3.70;3.30;;;;;;;;;;5017120;28;20223;-83
2023/09/05 06:39:00;;;;;;;3.20;2.90;;;;;;;;;;5015730;28;20215;-83
2023/09/05 06:41:29;;;;;;;4.00;2.70;;;;;;;;;;5019207;28;20230;-82
2023/09/05 06:43:56;;;;;;;6.60;3.00;;;;;;;;;;5024035;28;20281;-83
2023/09/05 06:46:23;;;;;;;3.20;2.90;;;;;;;;;;5021554;28;20243;-83
2023/09/05 06:48:50;;;;;;;3.33;3.00;;;;;;;;;;5031158;28;20219;-83
2023/09/05 06:51:18;;;;;;;4.70;3.50;;;;;;;;;;5023115;28;20226;-84
2023/09/05 06:53:45;;;;;;;4.50;2.70;;;;;;;;;;5034284;28;20211;-83
2023/09/05 06:56:12;;;;;;;3.37;2.50;;;;;;;;;;5025222;28;20227;-84
2023/09/05 06:58:40;;;;;;;3.47;2.60;;;;;;;;;;5030085;28;20207;-84
2023/09/05 07:01:07;;;;;;;3.17;2.57;;;;;;;;;;5033737;28;20230;-84
2023/09/05 07:03:34;;;;;;;2.60;2.40;;;;;;;;;;5034273;28;20249;-84
2023/09/05 07:06:04;;;;;;;3.13;2.03;;;;;;;;;;5031307;28;20239;-84
2023/09/05 07:08:31;;;;;;;2.97;2.60;;;;;;;;;;5026143;28;20296;-84
2023/09/05 07:10:58;;;;;;;2.93;2.40;;;;;;;;;;5034006;28;20258;-84
2023/09/05 07:13:25;;;;;;;4.87;2.53;;;;;;;;;;5034037;28;20205;-84
2023/09/05 07:15:54;;;;;;;2.77;2.20;;;;;;;;;;5031974;28;20236;-84
2023/09/05 07:18:21;;;;;;;3.27;2.50;;;;;;;;;;5034772;28;20229;-84
2023/09/05 07:20:49;;;;;;;2.53;2.30;;;;;;;;;;5025445;28;20615;-84
2023/09/05 07:23:16;;;;;;;5.40;2.55;;;;;;;;;;5033933;28;20290;-84
2023/09/05 07:25:43;;;;;;;2.43;2.23;;;;;;;;;;5031518;28;20234;-84
2023/09/05 07:28:10;;;;;;;2.53;2.33;;;;;;;;;;5029549;28;20784;-84
2023/09/05 07:30:38;;;;;;;3.17;2.40;;;;;;;;;;5033172;28;20739;-84
2023/09/05 07:33:07;;;;;;;2.20;2.10;;;;;;;;;;5031457;28;20207;-84
2023/09/05 07:35:34;;;;;;;2.40;2.20;;;;;;;;;;5027530;28;20230;-83
2023/09/05 07:38:01;;;;;;;2.40;2.20;;;;;;;;;;5033657;28;20227;-84
2023/09/05 07:40:28;;;;;;;2.05;1.92;;;;;;;;;;5033027;28;20234;-83
2023/09/05 07:42:56;;;;;;;5.47;2.15;;;;;;;;;;5031374;28;20210;-83
2023/09/05 07:45:24;;;;;;;2.25;2.05;;;;;;;;;;5024610;28;20281;-84
2023/09/05 07:47:52;;;;;;;2.13;1.70;;;;;;;;;;5032961;28;20234;-86
2023/09/05 07:50:21;;;;;;;2.22;2.03;;;;;;;;;;5033139;28;20231;-83
2023/09/05 07:52:48;;;;;;;1.80;1.70;;;;;;;;;;5033107;28;20211;-84
2023/09/05 07:55:15;;;;;;;2.30;2.10;;;;;;;;;;5032345;28;20231;-84
2023/09/05 07:57:42;;;;;;;2.40;2.20;;;;;;;;;;5032871;28;20239;-85
2023/09/05 08:00:15;;;;;;;3.13;2.20;;;;;;;;;;5033344;28;20246;-82
2023/09/05 08:02:43;;;;;;;2.78;2.25;;;;;;;;;;5032126;28;20231;-83
2023/09/05 08:05:10;;;;;;;2.20;2.00;;;;;;;;;;5030708;28;20231;-82
2023/09/05 08:07:39;;;;;;;3.22;2.08;;;;;;;;;;5012798;28;20236;-83
2023/09/05 08:10:06;;;;;;;2.28;2.00;;;;;;;;;;5028067;28;20234;-82
2023/09/05 08:12:33;;;;;;;1.92;1.73;;;;;;;;;;5031960;28;20202;-82
2023/09/05 08:15:00;;;;;;;2.55;1.70;;;;;;;;;;5030126;28;20734;-82
2023/09/05 08:17:29;;;;;;;2.33;2.13;;;;;;;;;;5019789;28;20229;-84
2023/09/05 08:19:56;;;;;;;1.92;1.83;;;;;;;;;;5028535;28;20221;-83
2023/09/05 08:22:23;;;;;;;2.58;1.70;;;;;;;;;;5028036;28;20203;-83
2023/09/05 08:24:51;;;;;;;2.17;1.90;;;;;;;;;;5026347;28;20225;-83
2023/09/05 08:27:28;;;;;;;3.17;1.70;;;;;;;;;;5007078;28;20315;-82
2023/09/05 08:29:55;;;;;;;2.17;1.90;;;;;;;;;;5028093;28;20289;-83
2023/09/05 08:32:22;;;;;;;2.05;1.90;;;;;;;;;;5015399;28;20198;-83
2023/09/05 08:34:49;;;;;;;3.42;1.88;;;;;;;;;;5031026;28;20265;-83
2023/09/05 08:37:17;;;;;;;2.80;2.00;;;;;;;;;;5024209;28;20223;-83
2023/09/05 08:39:44;;;;;;;2.30;2.10;;;;;;;;;;5019103;28;20215;-82
2023/09/05 08:42:12;;;;;;;1.90;1.80;;;;;;;;;;5030638;28;20202;-83
2023/09/05 08:44:40;;;;;;;2.55;1.92;;;;;;;;;;5011033;28;20224;-84
2023/09/05 08:47:07;;;;;;;2.72;2.20;;;;;;;;;;5027202;28;20242;-82
2023/09/05 08:49:34;;;;;;;2.35;1.80;;;;;;;;;;5031082;28;20214;-82
2023/09/05 08:52:04;;;;;;;1.90;1.80;;;;;;;;;;5030653;28;20236;-81
2023/09/05 08:54:32;;;;;;;2.15;1.95;;;;;;;;;;5025766;28;20207;-82
2023/09/05 08:56:59;;;;;;;2.95;1.90;;;;;;;;;;5027368;28;20231;-82
2023/09/05 08:59:28;;;;;;;2.22;2.00;;;;;;;;;;5025468;28;20290;-81
2023/09/05 09:01:55;;;;;;;2.85;1.77;;;;;;;;;;5031813;28;20234;-82
2023/09/05 09:04:22;;;;;;;2.10;1.90;;;;;;;;;;5016655;28;20231;-82
2023/09/05 09:06:55;;;;;;;2.03;1.83;;;;;;;;;;5011476;28;20235;-82
2023/09/05 09:09:35;;;;;;;1.90;1.80;;;;;;;;;;5007508;28;20677;-82
2023/09/05 09:12:02;;;;;;;1.90;1.70;;;;;;;;;;5031189;28;20257;-82
2023/09/05 09:14:31;;;;;;;2.63;1.80;;;;;;;;;;5028495;28;20669;-83
2023/09/05 09:17:00;;;;;;;2.72;2.20;;;;;;;;;;5012123;28;20246;-82
2023/09/05 09:19:29;;;;;;;1.83;1.73;;;;;;;;;;5031874;28;20210;-82
2023/09/05 09:21:56;;;;;;;3.08;2.58;;;;;;;;;;5031403;28;20328;-82
2023/09/05 09:24:25;;;;;;;2.00;1.83;;;;;;;;;;5031365;28;20227;-82
2023/09/05 09:26:53;;;;;;;2.10;1.80;;;;;;;;;;5022848;28;20238;-83
2023/09/05 09:29:20;;;;;;;4.60;2.17;;;;;;;;;;5023990;28;20221;-82
2023/09/05 09:31:49;;;;;;;2.75;1.80;;;;;;;;;;5022782;28;20231;-84
2023/09/05 09:34:20;;;;;;;3.25;1.73;;;;;;;;;;5030936;28;20571;-84
2023/09/05 09:36:52;;;;;;;2.20;2.00;;;;;;;;;;5017385;28;20850;-84
2023/09/05 09:39:19;;;;;;;2.03;1.80;;;;;;;;;;5034957;28;20203;-84
2023/09/05 09:41:49;;;;;;;2.10;1.67;;;;;;;;;;5034567;28;20237;-84
2023/09/05 09:44:25;;;;;;;1.63;1.52;;;;;;;;;;5026868;28;20759;-84
2023/09/05 09:46:55;;;;;;;1.95;1.80;;;;;;;;;;5025762;28;20230;-84
2023/09/05 09:49:23;;;;;;;1.80;1.70;;;;;;;;;;5026721;28;20207;-84
2023/09/05 09:51:53;;;;;;;1.90;1.70;;;;;;;;;;5027239;28;20247;-83
2023/09/05 09:54:23;;;;;;;2.03;1.83;;;;;;;;;;5034624;28;20228;-84
2023/09/05 09:56:50;;;;;;;2.00;1.80;;;;;;;;;;5025534;28;20237;-83
2023/09/05 09:59:20;;;;;;;1.92;1.83;;;;;;;;;;5031660;28;20213;-84
2023/09/05 10:01:47;;;;;;;2.00;1.77;;;;;;;;;;5029070;28;20234;-84
2023/09/05 10:04:16;;;;;;;1.90;1.75;;;;;;;;;;5034060;28;20569;-84
2023/09/05 10:06:45;;;;;;;1.85;1.70;;;;;;;;;;5031788;28;20249;-84
2023/09/05 10:09:13;;;;;;;2.25;1.70;;;;;;;;;;5035236;28;20257;-86
2023/09/05 10:11:41;;;;;;;2.03;1.45;;;;;;;;;;5034571;28;20606;-84
2023/09/05 10:14:08;;;;;;;1.70;1.60;;;;;;;;;;5034388;28;20583;-84
2023/09/05 10:16:35;;;;;;;2.95;1.70;;;;;;;;;;5025103;28;20901;-85
2023/09/05 10:19:04;;;;;;;2.13;1.48;;;;;;;;;;5034923;28;20211;-84
2023/09/05 10:21:33;;;;;;;2.58;1.50;;;;;;;;;;5034209;28;20222;-85
2023/09/05 10:24:00;;;;;;;1.70;1.58;;;;;;;;;;5034626;28;20210;-85
2023/09/05 10:26:29;;;;;;;1.98;1.80;;;;;;;;;;5034003;28;20230;-84
2023/09/05 10:28:58;;;;;;;1.85;1.48;;;;;;;;;;5035096;28;20249;-84
2023/09/05 10:31:26;;;;;;;1.70;1.60;;;;;;;;;;5026177;28;20249;-84
2023/09/05 10:33:53;;;;;;;1.70;1.55;;;;;;;;;;5033774;28;20820;-84
2023/09/05 10:36:39;;;;;;;3.20;2.10;;;;;;;;;;5033827;28;20239;-84
2023/09/05 10:39:17;;;;;;;2.63;1.88;;;;;;;;;;5034675;28;20964;-84
2023/09/05 10:41:44;;;;;;;2.00;1.70;;;;;;;;;;5034165;28;20246;-85
2023/09/05 10:44:11;;;;;;;1.80;1.70;;;;;;;;;;5025734;28;20233;-84
2023/09/05 10:46:40;;;;;;;1.40;1.30;;;;;;;;;;5028727;28;20326;-84
2023/09/05 10:49:12;;;;;;;2.67;1.60;;;;;;;;;;5022237;28;20215;-84
2023/09/05 10:51:54;;;;;;;3.30;1.60;;;;;;;;;;5033581;28;20230;-84
2023/09/05 10:54:30;;;;;;;1.67;1.52;;;;;;;;;;5033678;28;20905;-84
2023/09/05 10:56:58;;;;;;;2.15;1.83;;;;;;;;;;5025133;28;20245;-84
2023/09/05 10:59:26;;;;;;;2.58;1.65;;;;;;;;;;5034352;28;20211;-82
2023/09/05 11:01:56;;;;;;;1.60;1.50;;;;;;;;;;5033719;28;20714;-83
2023/09/05 11:04:26;;;;;;;2.13;1.58;;;;;;;;;;5033875;28;20206;-83
2023/09/05 11:06:57;;;;;;;3.17;1.90;;;;;;;;;;5024853;28;20257;-83
2023/09/05 11:09:24;;;;;;;1.67;1.58;;;;;;;;;;5033892;28;20199;-83
2023/09/05 11:11:53;;;;;;;3.17;1.98;;;;;;;;;;5025386;28;20748;-83
2023/09/05 11:14:30;;;;;;;1.40;1.30;;;;;;;;;;5033892;28;20254;-83
2023/09/05 11:16:57;;;;;;;1.95;1.60;;;;;;;;;;5024933;28;20589;-83
2023/09/05 11:19:37;;;;;;;1.40;1.30;;;;;;;;;;5033092;28;20203;-83
2023/09/05 11:22:11;;;;;;;1.58;1.48;;;;;;;;;;5028117;28;20255;-83
2023/09/05 11:24:38;;;;;;;1.73;1.42;;;;;;;;;;5021326;28;20222;-82
2023/09/05 11:27:07;;;;;;;2.08;1.92;;;;;;;;;;5029925;28;20288;-83
2023/09/05 11:29:35;;;;;;;1.92;1.58;;;;;;;;;;5025412;28;20581;-83
2023/09/05 11:32:02;;;;;;;1.60;1.50;;;;;;;;;;5032818;28;20746;-83
2023/09/05 11:34:29;;;;;;;1.50;1.40;;;;;;;;;;5010185;28;20207;-83
2023/09/05 11:36:56;;;;;;;2.90;1.77;;;;;;;;;;5033149;28;20234;-84
2023/09/05 11:39:27;;;;;;;1.52;1.42;;;;;;;;;;5030804;28;20215;-84
2023/09/05 11:41:58;;;;;;;1.48;1.38;;;;;;;;;;5027473;28;20284;-84
2023/09/05 11:44:33;;;;;;;2.10;1.80;;;;;;;;;;5018112;28;20215;-83
2023/09/05 11:47:00;;;;;;;1.65;1.25;;;;;;;;;;5032121;28;20704;-84
2023/09/05 11:49:27;;;;;;;3.15;1.48;;;;;;;;;;5032820;28;20214;-83
2023/09/05 11:51:54;;;;;;;2.80;1.45;;;;;;;;;;5033254;28;20239;-83
2023/09/05 11:54:22;;;;;;;1.40;1.30;;;;;;;;;;5028125;28;20207;-86
2023/09/05 11:56:50;;;;;;;1.33;1.23;;;;;;;;;;5033438;28;20231;-83
2023/09/05 11:59:17;;;;;;;1.17;1.17;;;;;;;;;;5031628;28;20540;-83
2023/09/05 12:01:46;;;;;;;1.50;1.40;;;;;;;;;;5028218;28;20227;-83
2023/09/05 12:04:13;;;;;;;2.30;1.73;;;;;;;;;;5024337;28;20208;-84
2023/09/05 12:06:40;;;;;;;1.90;1.80;;;;;;;;;;5025249;28;20234;-86
2023/09/05 12:09:10;;;;;;;3.10;1.38;;;;;;;;;;5032988;28;20226;-85
2023/09/05 12:11:37;;;;;;;1.95;1.40;;;;;;;;;;5025739;28;20226;-86
2023/09/05 12:14:04;;;;;;;2.50;1.75;;;;;;;;;;5032922;28;20725;-85
2023/09/05 12:16:31;;;;;;;3.25;1.55;;;;;;;;;;5017757;28;20230;-86
2023/09/05 12:19:00;;;;;;;2.80;1.48;;;;;;;;;;5033824;28;20206;-86
2023/09/05 12:21:39;;;;;;;1.42;1.33;;;;;;;;;;5033605;28;20237;-85
2023/09/05 12:24:24;;;;;;;2.15;1.27;;;;;;;;;;5031008;28;20197;-85
2023/09/05 12:26:52;;;;;;;1.67;1.30;;;;;;;;;;5022812;28;20229;-85
2023/09/05 12:29:21;;;;;;;2.38;1.45;;;;;;;;;;5033450;28;20231;-85
2023/09/05 12:31:49;;;;;;;2.50;1.33;;;;;;;;;;5012568;28;20265;-85
2023/09/05 12:34:18;;;;;;;4.03;2.15;;;;;;;;;;5028849;28;20555;-85
2023/09/05 12:36:45;;;;;;;1.45;1.35;;;;;;;;;;5032748;28;20572;-85
2023/09/05 12:39:14;;;;;;;2.60;1.55;;;;;;;;;;5024877;28;20206;-85
2023/09/05 12:41:41;;;;;;;2.42;1.50;;;;;;;;;;5032065;28;20238;-84
2023/09/05 12:44:09;;;;;;;1.60;1.50;;;;;;;;;;5031561;28;20288;-85
2023/09/05 12:46:36;;;;;;;1.40;1.25;;;;;;;;;;5017634;28;20606;-85
2023/09/05 12:49:04;;;;;;;1.40;1.30;;;;;;;;;;5033785;28;20314;-85
2023/09/05 12:51:33;;;;;;;1.67;1.30;;;;;;;;;;5027635;28;20276;-85
2023/09/05 12:54:01;;;;;;;3.45;1.20;;;;;;;;;;5033274;28;20276;-85
2023/09/05 12:56:29;;;;;;;1.30;1.20;;;;;;;;;;5021465;28;20234;-85
2023/09/05 12:58:56;;;;;;;1.58;1.35;;;;;;;;;;5021601;28;20233;-86
2023/09/05 13:01:23;;;;;;;1.33;1.23;;;;;;;;;;5031303;28;20284;-85
2023/09/05 13:03:51;;;;;;;1.08;1.08;;;;;;;;;;5032807;28;20222;-85
2023/09/05 13:06:19;;;;;;;1.58;1.33;;;;;;;;;;5028323;28;20235;-85
2023/09/05 13:08:48;;;;;;;1.70;1.38;;;;;;;;;;5018360;28;20760;-80
2023/09/05 13:11:16;;;;;;;1.13;1.10;;;;;;;;;;5023840;28;20230;-81
2023/09/05 13:13:44;;;;;;;2.35;1.38;;;;;;;;;;5017061;28;20688;-81
2023/09/05 13:16:11;;;;;;;1.30;1.20;;;;;;;;;;5018461;28;20234;-80
2023/09/05 13:18:38;;;;;;;1.40;1.30;;;;;;;;;;5023764;28;20209;-85
2023/09/05 13:21:06;;;;;;;1.73;1.50;;;;;;;;;;5035782;28;20233;-81
2023/09/05 13:33:23;;;;;;;1.42;1.33;;;;;;;;;;5089662;27;20611;-80
2023/09/05 13:35:50;;;;;;;1.50;1.40;;;;;;;;;;5086645;27;20252;-81
2023/09/05 13:38:19;;;;;;;4.75;1.60;;;;;;;;;;5070173;28;20205;-83
2023/09/05 13:40:46;;;;;;;1.38;1.27;;;;;;;;;;5069043;28;20225;-81
2023/09/05 13:43:13;;;;;;;2.00;1.45;;;;;;;;;;5068991;28;20217;-81
2023/09/05 13:45:40;;;;;;;1.55;1.23;;;;;;;;;;5066976;28;20232;-81
2023/09/05 13:48:08;;;;;;;1.85;1.30;;;;;;;;;;5068306;28;20201;-82
2023/09/05 13:50:36;;;;;;;1.48;1.38;;;;;;;;;;5067718;28;20225;-82
2023/09/05 13:53:04;;;;;;;1.50;1.10;;;;;;;;;;5068593;28;20217;-82
2023/09/05 13:55:31;;;;;;;1.15;1.05;;;;;;;;;;5067352;28;20243;-82
2023/09/05 13:57:58;;;;;;;1.70;1.60;;;;;;;;;;5068568;28;20224;-82
2023/09/05 14:00:25;;;;;;;3.67;1.50;;;;;;;;;;5067547;28;20233;-82
2023/09/05 14:02:52;;;;;;;1.60;1.20;;;;;;;;;;5067538;28;20206;-81
2023/09/05 14:05:19;;;;;;;1.40;1.30;;;;;;;;;;5065546;28;20233;-81
2023/09/05 14:07:48;;;;;;;4.63;2.25;;;;;;;;;;5063281;28;20241;-81
2023/09/05 14:10:15;;;;;;;1.85;1.45;;;;;;;;;;5060228;28;20238;-81
2023/09/05 14:12:43;;;;;;;2.88;1.40;;;;;;;;;;5067130;28;20272;-81
2023/09/05 14:15:10;;;;;;;1.52;1.42;;;;;;;;;;5066893;28;20225;-81
2023/09/05 14:17:37;;;;;;;1.30;1.20;;;;;;;;;;5067112;28;20237;-80
2023/09/05 14:20:06;;;;;;;1.75;1.60;;;;;;;;;;5066134;28;20229;-80
2023/09/05 14:22:33;;;;;;;1.60;1.50;;;;;;;;;;5066746;28;20212;-80
2023/09/05 14:25:01;;;;;;;1.63;1.52;;;;;;;;;;5066598;28;20263;-81
2023/09/05 14:27:28;;;;;;;4.30;1.52;;;;;;;;;;5067083;28;20241;-82
2023/09/05 14:29:55;;;;;;;1.50;1.40;;;;;;;;;;5067358;28;20212;-82
2023/09/05 14:32:22;;;;;;;5.18;1.30;;;;;;;;;;5066630;28;20225;-81
2023/09/05 14:34:53;;;;;;;1.60;1.45;;;;;;;;;;5065978;28;20301;-81
2023/09/05 14:37:21;;;;;;;3.45;1.40;;;;;;;;;;5066908;28;20240;-81
2023/09/05 14:39:48;;;;;;;1.20;1.20;;;;;;;;;;5066872;28;20210;-81
2023/09/05 14:42:17;;;;;;;6.53;1.85;;;;;;;;;;5067124;28;20210;-80
2023/09/05 14:44:44;;;;;;;2.20;1.60;;;;;;;;;;5052700;28;20213;-80
2023/09/05 14:47:11;;;;;;;2.85;1.42;;;;;;;;;;5053795;28;20233;-80
2023/09/05 14:49:38;;;;;;;2.17;1.50;;;;;;;;;;5053374;28;20210;-80
2023/09/05 14:52:05;;;;;;;1.85;1.67;;;;;;;;;;5052943;28;20234;-79
2023/09/05 14:54:32;;;;;;;2.03;1.45;;;;;;;;;;5052950;28;20221;-80
2023/09/05 14:56:59;;;;;;;1.90;1.20;;;;;;;;;;5053449;28;20274;-80
2023/09/05 14:59:28;;;;;;;1.75;1.25;;;;;;;;;;5053399;28;20213;-80
2023/09/05 15:01:55;;;;;;;1.77;1.65;;;;;;;;;;5052503;28;20229;-79
2023/09/05 15:04:22;;;;;;;1.50;1.40;;;;;;;;;;5049445;28;20213;-79
2023/09/05 15:06:49;;;;;;;1.60;1.50;;;;;;;;;;5052343;28;20324;-79
2023/09/05 15:09:16;;;;;;;1.58;1.45;;;;;;;;;;5051755;28;20206;-79